createdAt,value
2023-02-11T00:01:33.038Z,101532.48
2023-02-11T00:04:02.479Z,101535.42
2023-02-11T00:06:32.818Z,101528.38
2023-02-11T00:09:01.182Z,101522.02
2023-02-11T00:11:30.660Z,101510.82
2023-02-11T00:14:01.327Z,101498.09
2023-02-11T00:16:31.414Z,101487.41
2023-02-11T00:19:03.162Z,101460.74
2023-02-11T00:21:31.259Z,101446.96
2023-02-11T00:24:02.327Z,101448.17
2023-02-11T00:26:35.435Z,101441.99
2023-02-11T00:29:04.729Z,101427.72
2023-02-11T00:31:34.172Z,101428.42
2023-02-11T00:34:02.735Z,101420.84
2023-02-11T00:36:31.009Z,101405.17
2023-02-11T00:39:00.049Z,101394.85
2023-02-11T00:41:29.792Z,101366.80
2023-02-11T00:44:01.410Z,101372.84
2023-02-11T00:46:29.781Z,101344.95
2023-02-11T00:48:58.120Z,101340.98
2023-02-11T00:51:28.171Z,101352.16
2023-02-11T00:53:56.462Z,101365.95
2023-02-11T00:56:25.267Z,101345.30
2023-02-11T00:58:54.071Z,101333.93
2023-02-11T01:01:22.476Z,101324.30
2023-02-11T01:03:50.931Z,101332.05
2023-02-11T01:06:19.924Z,101335.31
2023-02-11T01:08:48.072Z,101329.98
2023-02-11T01:11:18.905Z,101317.43
2023-02-11T01:13:48.697Z,101318.81
2023-02-11T01:16:18.981Z,101319.15
2023-02-11T01:18:47.569Z,101314.51
2023-02-11T01:21:19.749Z,101323.29
2023-02-11T01:23:47.905Z,101339.30
2023-02-11T01:26:16.270Z,101318.13
2023-02-11T01:28:44.784Z,101305.39
2023-02-11T01:31:13.095Z,101309.17
2023-02-11T01:33:41.177Z,101320.36
2023-02-11T01:36:10.988Z,101296.10
2023-02-11T01:38:41.047Z,101286.46
2023-02-11T01:41:12.835Z,101289.38
2023-02-11T01:43:45.124Z,101256.30
2023-02-11T01:46:14.199Z,101268.36
2023-02-11T01:48:47.337Z,101244.75
2023-02-11T01:51:20.799Z,101247.50
2023-02-11T01:54:08.592Z,101243.18
2023-02-11T01:57:01.262Z,101244.23
2023-02-11T01:59:34.804Z,101229.56
2023-02-11T02:02:08.486Z,101236.25
2023-02-11T02:04:52.331Z,101224.71
2023-02-11T02:07:32.851Z,101211.96
2023-02-11T02:10:09.163Z,101209.71
2023-02-11T02:12:37.664Z,101219.34
2023-02-11T02:15:20.911Z,101202.80
2023-02-11T02:18:17.362Z,101218.10
2023-02-11T02:21:08.630Z,101208.98
2023-02-11T02:24:05.058Z,101197.95
2023-02-11T02:26:58.230Z,101194.16
2023-02-11T02:29:38.611Z,101191.06
2023-02-11T02:33:07.979Z,101184.17
2023-02-11T02:36:06.857Z,101186.23
2023-02-11T02:39:04.284Z,101163.86
2023-02-11T02:41:35.301Z,101155.93
2023-02-11T02:44:03.719Z,101153.00
2023-02-11T02:46:34.533Z,101133.90
2023-02-11T02:49:03.514Z,101124.45
2023-02-11T02:51:50.822Z,101119.77
2023-02-11T02:54:46.144Z,101125.95
2023-02-11T02:57:30.195Z,101112.19
2023-02-11T03:00:36.079Z,101129.38
2023-02-11T03:03:10.310Z,101122.66
2023-02-11T03:05:47.625Z,101129.70
2023-02-11T03:08:29.525Z,101115.08
2023-02-11T03:10:59.340Z,101089.09
2023-02-11T03:13:33.788Z,101097.86
2023-02-11T03:16:10.718Z,101087.38
2023-02-11T03:18:42.829Z,101097.70
2023-02-11T03:21:12.531Z,101087.88
2023-02-11T03:23:47.835Z,101084.77
2023-02-11T03:26:26.946Z,101078.05
2023-02-11T03:29:25.238Z,101080.63
2023-02-11T03:32:17.684Z,101085.44
2023-02-11T03:34:57.673Z,101074.11
2023-02-11T03:37:41.024Z,101061.73
2023-02-11T03:40:17.248Z,101047.27
2023-02-11T03:42:52.321Z,101058.63
2023-02-11T03:45:23.761Z,101049.86
2023-02-11T03:47:57.336Z,101066.90
2023-02-11T03:50:26.988Z,101065.52
2023-02-11T03:52:56.977Z,101059.85
2023-02-11T03:55:26.814Z,101059.85
2023-02-11T03:57:54.933Z,101046.27
2023-02-11T04:00:34.337Z,101073.27
2023-02-11T04:03:03.925Z,101047.64
2023-02-11T04:05:32.796Z,101042.82
2023-02-11T04:08:01.472Z,101025.10
2023-02-11T04:10:29.994Z,101020.98
2023-02-11T04:12:58.036Z,101024.75
2023-02-11T04:15:26.338Z,101017.20
2023-02-11T04:17:54.661Z,101020.83
2023-02-11T04:20:22.945Z,101011.52
2023-02-11T04:22:51.126Z,101033.20
2023-02-11T04:25:19.250Z,101015.67
2023-02-11T04:27:47.600Z,101023.43
2023-02-11T04:30:15.655Z,101012.27
2023-02-11T04:32:43.778Z,101020.02
2023-02-11T04:35:11.787Z,101009.86
2023-02-11T04:37:40.114Z,101009.17
2023-02-11T04:40:08.935Z,100998.53
2023-02-11T04:42:36.941Z,100994.05
2023-02-11T04:45:05.210Z,101000.60
2023-02-11T04:47:34.055Z,100984.61
2023-02-11T04:50:02.184Z,100975.15
2023-02-11T04:52:30.633Z,100961.73
2023-02-11T04:54:59.016Z,100954.17
2023-02-11T04:57:27.066Z,100946.95
2023-02-11T04:59:55.079Z,100934.55
2023-02-11T05:02:23.184Z,100926.46
2023-02-11T05:04:51.298Z,100931.65
2023-02-11T05:07:19.445Z,100919.27
2023-02-11T05:09:47.491Z,100910.31
2023-02-11T05:12:15.612Z,100910.14
2023-02-11T05:14:43.653Z,100913.77
2023-02-11T05:17:11.661Z,100897.76
2023-02-11T05:19:39.789Z,100900.34
2023-02-11T05:22:08.124Z,100903.62
2023-02-11T05:24:36.143Z,100905.68
2023-02-11T05:27:04.518Z,100892.08
2023-02-11T05:29:33.142Z,100882.45
2023-02-11T05:32:01.264Z,100885.21
2023-02-11T05:34:29.364Z,100868.69
2023-02-11T05:36:57.416Z,100856.64
2023-02-11T05:39:25.509Z,100861.12
2023-02-11T05:41:53.670Z,100854.74
2023-02-11T05:44:21.734Z,100835.45
2023-02-11T05:46:49.953Z,100839.77
2023-02-11T05:49:18.437Z,100829.78
2023-02-11T05:51:47.057Z,100828.58
2023-02-11T05:54:15.460Z,100810.84
2023-02-11T05:56:44.898Z,100825.29
2023-02-11T05:59:16.289Z,100815.30
2023-02-11T06:01:44.454Z,100805.99
2023-02-11T06:04:12.597Z,100795.65
2023-02-11T06:06:40.677Z,100803.06
2023-02-11T06:09:10.912Z,100781.53
2023-02-11T06:11:38.988Z,100776.35
2023-02-11T06:14:07.150Z,100797.88
2023-02-11T06:16:35.250Z,100785.13
2023-02-11T06:19:03.851Z,100788.02
2023-02-11T06:21:42.853Z,100781.66
2023-02-11T06:24:12.984Z,100767.01
2023-02-11T06:26:41.346Z,100777.00
2023-02-11T06:29:10.059Z,100790.06
2023-02-11T06:31:41.798Z,100780.75
2023-02-11T06:34:10.518Z,100759.71
2023-02-11T06:36:39.978Z,100790.73
2023-02-11T06:39:08.665Z,100773.66
2023-02-11T06:41:36.856Z,100782.46
2023-02-11T06:44:05.778Z,100794.34
2023-02-11T06:46:33.835Z,100811.73
2023-02-11T06:49:01.970Z,100805.86
2023-02-11T06:51:30.348Z,100829.98
2023-02-11T06:53:58.614Z,100824.28
2023-02-11T06:56:27.686Z,100831.00
2023-02-11T06:58:56.718Z,100831.33
2023-02-11T07:01:27.034Z,100850.45
2023-02-11T07:03:55.238Z,100814.25
2023-02-11T07:06:27.754Z,100817.88
2023-02-11T07:08:56.814Z,100826.31
2023-02-11T07:11:29.101Z,100825.60
2023-02-11T07:14:08.445Z,100830.42
2023-02-11T07:16:38.441Z,100821.96
2023-02-11T07:19:06.766Z,100818.67
2023-02-11T07:21:35.244Z,100800.56
2023-02-11T07:24:10.673Z,100797.80
2023-02-11T07:26:39.253Z,100811.92
2023-02-11T07:29:07.349Z,100777.27
2023-02-11T07:31:35.620Z,100766.05
2023-02-11T07:34:04.233Z,100769.49
2023-02-11T07:36:32.557Z,100772.23
2023-02-11T07:39:00.717Z,100758.60
2023-02-11T07:41:28.942Z,100766.70
2023-02-11T07:43:57.055Z,100767.55
2023-02-11T07:46:27.909Z,100763.05
2023-02-11T07:48:56.371Z,100743.90
2023-02-11T07:51:29.788Z,100757.15
2023-02-11T07:53:59.835Z,100756.09
2023-02-11T07:56:29.462Z,100771.27
2023-02-11T07:59:01.143Z,100752.27
2023-02-11T08:01:30.501Z,100744.16
2023-02-11T08:03:59.953Z,100725.51
2023-02-11T08:06:31.061Z,100736.54
2023-02-11T08:09:09.066Z,100740.48
2023-02-11T08:11:37.267Z,100741.15
2023-02-11T08:14:05.672Z,100741.30
2023-02-11T08:16:35.651Z,100746.63
2023-02-11T08:19:07.930Z,100756.30
2023-02-11T08:21:36.001Z,100763.02
2023-02-11T08:24:04.281Z,100751.13
2023-02-11T08:26:37.408Z,100742.33
2023-02-11T08:29:12.103Z,100722.13
2023-02-11T08:31:42.582Z,100737.46
2023-02-11T08:34:14.225Z,100717.42
2023-02-11T08:36:43.560Z,100710.17
2023-02-11T08:39:20.309Z,100703.07
2023-02-11T08:41:52.057Z,100696.16
2023-02-11T08:44:21.304Z,100712.04
2023-02-11T08:46:50.729Z,100716.88
2023-02-11T08:49:19.675Z,100714.63
2023-02-11T08:51:48.817Z,100727.56
2023-02-11T08:54:16.999Z,100723.77
2023-02-11T08:56:45.580Z,100727.40
2023-02-11T08:59:15.718Z,100729.98
2023-02-11T09:01:44.440Z,100755.69
2023-02-11T09:04:13.433Z,100750.85
2023-02-11T09:06:41.530Z,100744.11
2023-02-11T09:09:13.675Z,100741.34
2023-02-11T09:11:43.365Z,100729.58
2023-02-11T09:14:18.509Z,100747.16
2023-02-11T09:16:46.864Z,100748.55
2023-02-11T09:19:15.153Z,100739.56
2023-02-11T09:21:43.336Z,100743.70
2023-02-11T09:24:12.507Z,100733.33
2023-02-11T09:26:42.053Z,100728.65
2023-02-11T09:29:10.291Z,100743.13
2023-02-11T09:31:38.677Z,100754.14
2023-02-11T09:34:06.924Z,100758.44
2023-02-11T09:36:38.629Z,100760.34
2023-02-11T09:39:11.650Z,100781.75
2023-02-11T09:42:01.718Z,100770.86
2023-02-11T09:44:34.030Z,100772.58
2023-02-11T09:47:06.377Z,100770.68
2023-02-11T09:49:57.944Z,100777.90
2023-02-11T09:52:47.482Z,100806.05
2023-02-11T09:55:29.382Z,100817.81
2023-02-11T09:57:58.542Z,100771.89
2023-02-11T10:00:47.221Z,100766.17
2023-02-11T10:03:33.875Z,100776.84
2023-02-11T10:06:11.140Z,100790.79
2023-02-11T10:08:50.778Z,100788.86
2023-02-11T10:11:47.915Z,100815.59
2023-02-11T10:14:15.913Z,100813.32
2023-02-11T10:17:04.752Z,100831.42
2023-02-11T10:20:06.422Z,100809.98
2023-02-11T10:22:45.536Z,100817.40
2023-02-11T10:25:45.178Z,100820.69
2023-02-11T10:28:24.707Z,100817.20
2023-02-11T10:30:59.576Z,100836.70
2023-02-11T10:33:31.502Z,100864.51
2023-02-11T10:35:59.890Z,100852.05
2023-02-11T10:38:28.448Z,100866.88
2023-02-11T10:40:56.641Z,100860.13
2023-02-11T10:43:29.187Z,100864.97
2023-02-11T10:45:58.984Z,100894.15
2023-02-11T10:48:49.577Z,100878.05
2023-02-11T10:51:23.569Z,100873.91
2023-02-11T10:54:21.264Z,100871.81
2023-02-11T10:56:52.962Z,100876.81
2023-02-11T10:59:47.262Z,100884.73
2023-02-11T11:02:31.998Z,100890.77
2023-02-11T11:05:16.898Z,100893.52
2023-02-11T11:08:08.721Z,100900.04
2023-02-11T11:10:44.061Z,100897.79
2023-02-11T11:13:24.284Z,100903.11
2023-02-11T11:16:12.482Z,100910.49
2023-02-11T11:18:43.855Z,100931.40
2023-02-11T11:21:22.458Z,100933.13
2023-02-11T11:23:57.647Z,100932.23
2023-02-11T11:26:41.383Z,100914.59
2023-02-11T11:29:26.899Z,100942.59
2023-02-11T11:31:59.539Z,100945.01
2023-02-11T11:34:35.414Z,100929.61
2023-02-11T11:37:18.805Z,100935.30
2023-02-11T11:40:16.174Z,100942.20
2023-02-11T11:42:44.454Z,100947.89
2023-02-11T11:45:15.733Z,100953.57
2023-02-11T11:47:59.233Z,100931.61
2023-02-11T11:50:33.527Z,100931.58
2023-02-11T11:53:09.477Z,100947.98
2023-02-11T11:55:53.401Z,100954.90
2023-02-11T11:58:23.220Z,100982.20
2023-02-11T12:01:19.811Z,100977.33
2023-02-11T12:04:25.362Z,100983.17
2023-02-11T12:07:08.451Z,100969.84
2023-02-11T12:09:51.912Z,100990.05
2023-02-11T12:12:23.156Z,100976.50
2023-02-11T12:15:04.396Z,100978.17
2023-02-11T12:17:47.472Z,100993.38
2023-02-11T12:20:26.159Z,100989.38
2023-02-11T12:23:13.083Z,100977.42
2023-02-11T12:25:56.915Z,100980.13
2023-02-11T12:28:46.748Z,100999.66
2023-02-11T12:31:47.021Z,100984.94
2023-02-11T12:34:43.477Z,100978.02
2023-02-11T12:37:17.376Z,101006.55
2023-02-11T12:40:11.266Z,101030.77
2023-02-11T12:43:02.556Z,101019.69
2023-02-11T12:46:10.253Z,101004.46
2023-02-11T12:48:55.108Z,101022.45
2023-02-11T12:51:52.386Z,101017.05
2023-02-11T12:54:26.569Z,101004.91
2023-02-11T12:56:59.362Z,101015.11
2023-02-11T12:59:33.447Z,101029.78
2023-02-11T13:02:12.104Z,101036.84
2023-02-11T13:04:48.020Z,101040.97
2023-02-11T13:07:23.094Z,101035.76
2023-02-11T13:10:05.475Z,101039.58
2023-02-11T13:12:54.081Z,101046.86
2023-02-11T13:15:22.263Z,101038.56
2023-02-11T13:18:01.183Z,101052.25
2023-02-11T13:21:07.002Z,101053.29
2023-02-11T13:23:50.364Z,101065.57
2023-02-11T13:26:27.495Z,101072.32
2023-02-11T13:29:09.522Z,101074.57
2023-02-11T13:31:37.746Z,101071.27
2023-02-11T13:34:24.951Z,101066.59
2023-02-11T13:36:57.815Z,101076.95
2023-02-11T13:39:25.939Z,101093.02
2023-02-11T13:42:03.437Z,101080.72
2023-02-11T13:44:34.312Z,101078.82
2023-02-11T13:47:05.571Z,101083.84
2023-02-11T13:49:40.803Z,101091.63
2023-02-11T13:52:24.594Z,101102.36
2023-02-11T13:54:55.995Z,101103.91
2023-02-11T13:57:34.328Z,101089.23
2023-02-11T14:00:09.881Z,101105.14
2023-02-11T14:02:57.285Z,101116.21
2023-02-11T14:05:51.892Z,101125.55
2023-02-11T14:08:41.638Z,101127.13
2023-02-11T14:11:44.822Z,101135.64
2023-02-11T14:14:25.507Z,101151.73
2023-02-11T14:16:59.786Z,101146.90
2023-02-11T14:19:35.903Z,101160.42
2023-02-11T14:22:05.643Z,101164.42
2023-02-11T14:24:34.917Z,101178.61
2023-02-11T14:27:21.550Z,101191.07
2023-02-11T14:30:01.766Z,101195.92
2023-02-11T14:32:49.222Z,101201.83
2023-02-11T14:35:43.869Z,101210.33
2023-02-11T14:38:50.166Z,101222.45
2023-02-11T14:41:23.616Z,101223.69
2023-02-11T14:43:58.730Z,101228.89
2023-02-11T14:46:30.797Z,101243.61
2023-02-11T14:49:02.186Z,101247.95
2023-02-11T14:51:38.858Z,101252.30
2023-02-11T14:54:16.998Z,101241.09
2023-02-11T14:57:09.380Z,101265.51
2023-02-11T14:59:37.598Z,101288.52
2023-02-11T15:02:23.906Z,101294.10
2023-02-11T15:04:52.030Z,101294.13
2023-02-11T15:07:20.222Z,101299.00
2023-02-11T15:09:53.768Z,101313.90
2023-02-11T15:12:27.623Z,101320.83
2023-02-11T15:14:59.239Z,101309.95
2023-02-11T15:17:31.798Z,101322.07
2023-02-11T15:20:02.400Z,101334.87
2023-02-11T15:22:36.600Z,101353.71
2023-02-11T15:25:07.952Z,101351.29
2023-02-11T15:27:58.549Z,101356.48
2023-02-11T15:30:31.094Z,101364.61
2023-02-11T15:33:03.187Z,101366.34
2023-02-11T15:35:37.873Z,101382.23
2023-02-11T15:38:06.069Z,101377.90
2023-02-11T15:40:37.345Z,101376.17
2023-02-11T15:43:08.315Z,101387.08
2023-02-11T15:45:41.446Z,101391.73
2023-02-11T15:48:20.626Z,101406.58
2023-02-11T15:50:53.983Z,101418.33
2023-02-11T15:53:27.834Z,101424.55
2023-02-11T15:56:29.899Z,101439.56
2023-02-11T15:59:00.933Z,101445.08
2023-02-11T16:01:34.049Z,101448.86
2023-02-11T16:04:04.081Z,101460.09
2023-02-11T16:06:40.416Z,101472.50
2023-02-11T16:09:08.868Z,101492.01
2023-02-11T16:11:55.080Z,101504.95
2023-02-11T16:14:35.406Z,101517.54
2023-02-11T16:17:09.206Z,101519.60
2023-02-11T16:19:45.100Z,101530.82
2023-02-11T16:22:19.632Z,101548.41
2023-02-11T16:24:52.579Z,101557.39
2023-02-11T16:27:38.065Z,101570.69
2023-02-11T16:30:18.272Z,101579.14
2023-02-11T16:32:46.409Z,101585.61
2023-02-11T16:35:14.454Z,101596.95
2023-02-11T16:37:42.450Z,101601.58
2023-02-11T16:40:12.431Z,101613.09
2023-02-11T16:42:40.917Z,101615.81
2023-02-11T16:45:09.695Z,101627.89
2023-02-11T16:47:41.053Z,101629.94
2023-02-11T16:50:11.758Z,101637.67
2023-02-11T16:52:40.092Z,101641.92
2023-02-11T16:55:10.249Z,101654.82
2023-02-11T16:57:38.298Z,101662.87
2023-02-11T17:00:07.664Z,101675.95
2023-02-11T17:02:38.233Z,101679.55
2023-02-11T17:05:08.938Z,101680.21
2023-02-11T17:07:37.002Z,101687.04
2023-02-11T17:10:14.275Z,101695.97
2023-02-11T17:12:42.281Z,101697.51
2023-02-11T17:15:10.980Z,101707.11
2023-02-11T17:17:39.125Z,101716.73
2023-02-11T17:20:08.738Z,101728.05
2023-02-11T17:22:36.789Z,101739.50
2023-02-11T17:25:05.074Z,101747.73
2023-02-11T17:27:33.505Z,101755.09
2023-02-11T17:30:01.942Z,101752.29
2023-02-11T17:32:30.065Z,101753.45
2023-02-11T17:34:58.230Z,101763.27
2023-02-11T17:37:26.354Z,101772.38
2023-02-11T17:39:54.458Z,101785.92
2023-02-11T17:42:22.570Z,101790.70
2023-02-11T17:44:50.681Z,101795.77
2023-02-11T17:47:18.713Z,101789.89
2023-02-11T17:49:46.730Z,101790.89
2023-02-11T17:52:15.096Z,101800.50
2023-02-11T17:54:43.593Z,101811.46
2023-02-11T17:57:13.049Z,101816.39
2023-02-11T17:59:41.154Z,101824.81
2023-02-11T18:02:12.489Z,101829.23
2023-02-11T18:04:40.789Z,101835.48
2023-02-11T18:07:09.119Z,101848.29
2023-02-11T18:09:41.904Z,101854.11
2023-02-11T18:12:11.094Z,101864.61
2023-02-11T18:14:41.037Z,101872.02
2023-02-11T18:17:09.343Z,101875.02
2023-02-11T18:19:37.700Z,101874.90
2023-02-11T18:22:05.911Z,101879.74
2023-02-11T18:24:33.987Z,101886.21
2023-02-11T18:27:02.325Z,101880.28
2023-02-11T18:29:30.371Z,101885.34
2023-02-11T18:31:58.487Z,101895.77
2023-02-11T18:34:26.663Z,101896.23
2023-02-11T18:36:54.735Z,101902.28
2023-02-11T18:39:24.446Z,101904.07
2023-02-11T18:41:56.855Z,101909.05
2023-02-11T18:44:25.686Z,101910.52
2023-02-11T18:46:54.410Z,101924.96
2023-02-11T18:49:22.649Z,101932.02
2023-02-11T18:51:50.833Z,101943.66
2023-02-11T18:54:19.399Z,101945.16
2023-02-11T18:56:47.488Z,101950.45
2023-02-11T18:59:16.067Z,101960.22
2023-02-11T19:01:46.979Z,101966.62
2023-02-11T19:04:19.953Z,101968.70
2023-02-11T19:06:49.843Z,101976.09
2023-02-11T19:09:19.925Z,101983.83
2023-02-11T19:11:49.152Z,101992.75
2023-02-11T19:14:31.463Z,102001.92
2023-02-11T19:17:02.250Z,102006.11
2023-02-11T19:19:33.243Z,102015.14
2023-02-11T19:22:03.278Z,102020.02
2023-02-11T19:24:31.431Z,102024.06
2023-02-11T19:27:02.555Z,102034.29
2023-02-11T19:29:35.377Z,102040.66
2023-02-11T19:32:06.046Z,102044.11
2023-02-11T19:34:41.163Z,102044.48
2023-02-11T19:37:12.697Z,102051.81
2023-02-11T19:39:42.754Z,102055.94
2023-02-11T19:42:15.464Z,102061.59
2023-02-11T19:44:43.894Z,102067.33
2023-02-11T19:47:13.648Z,102071.88
2023-02-11T19:49:41.680Z,102082.30
2023-02-11T19:52:09.780Z,102088.65
2023-02-11T19:54:38.304Z,102092.54
2023-02-11T19:57:06.713Z,102097.78
2023-02-11T19:59:35.775Z,102105.13
2023-02-11T20:02:03.952Z,102108.45
2023-02-11T20:04:32.312Z,102115.08
2023-02-11T20:07:00.558Z,102119.95
2023-02-11T20:09:31.077Z,102114.98
2023-02-11T20:11:59.646Z,102120.72
2023-02-11T20:14:28.230Z,102125.56
2023-02-11T20:16:56.553Z,102135.23
2023-02-11T20:19:24.716Z,102139.55
2023-02-11T20:21:55.846Z,102147.06
2023-02-11T20:24:25.348Z,102150.09
2023-02-11T20:26:56.853Z,102154.86
2023-02-11T20:29:25.841Z,102161.73
2023-02-11T20:31:54.612Z,102172.65
2023-02-11T20:34:22.979Z,102177.49
2023-02-11T20:36:52.209Z,102181.88
2023-02-11T20:39:22.516Z,102188.80
2023-02-11T20:41:51.852Z,102192.09
2023-02-11T20:44:23.998Z,102202.13
2023-02-11T20:46:54.350Z,102208.84
2023-02-11T20:49:24.341Z,102211.60
2023-02-11T20:51:54.016Z,102211.88
2023-02-11T20:54:24.348Z,102218.69
2023-02-11T20:56:54.068Z,102224.34
2023-02-11T20:59:22.806Z,102225.91
2023-02-11T21:01:56.101Z,102234.76
2023-02-11T21:04:27.505Z,102243.34
2023-02-11T21:06:58.577Z,102246.04
2023-02-11T21:09:30.332Z,102251.99
2023-02-11T21:11:59.303Z,102254.13
2023-02-11T21:14:28.298Z,102258.59
2023-02-11T21:16:57.665Z,102267.20
2023-02-11T21:19:26.171Z,102267.82
2023-02-11T21:21:55.314Z,102268.79
2023-02-11T21:24:23.888Z,102265.44
2023-02-11T21:26:51.985Z,102264.36
2023-02-11T21:51:28.430Z,102294.23
2023-02-11T21:54:01.456Z,102296.92
2023-02-11T21:56:31.814Z,102297.28
2023-02-11T21:59:00.685Z,102307.41
2023-02-11T22:01:31.846Z,102314.69
2023-02-11T22:04:00.341Z,102319.15
2023-02-11T22:06:31.269Z,102320.98
2023-02-11T22:09:02.729Z,102321.99
2023-02-11T22:11:30.827Z,102324.60
2023-02-11T22:13:59.424Z,102330.25
2023-02-11T22:16:30.046Z,102329.93
2023-02-11T22:18:59.049Z,102337.14
2023-02-11T22:21:27.199Z,102343.84
2023-02-11T22:23:56.160Z,102345.15
2023-02-11T22:26:26.075Z,102346.81
2023-02-11T22:28:55.058Z,102349.81
2023-02-11T22:31:30.467Z,102351.64
2023-02-11T22:33:59.832Z,102355.91
2023-02-11T22:36:31.375Z,102362.03
2023-02-11T22:39:05.275Z,102363.61
2023-02-11T22:41:34.148Z,102367.20
2023-02-11T22:44:02.178Z,102368.34
2023-02-11T22:46:30.695Z,102369.78
2023-02-11T22:48:59.045Z,102378.13
2023-02-11T22:51:29.172Z,102381.12
2023-02-11T22:53:59.738Z,102375.65
2023-02-11T22:56:29.887Z,102377.44
2023-02-11T22:59:00.282Z,102380.98
2023-02-11T23:01:29.812Z,102388.48
2023-02-11T23:04:00.626Z,102394.94
2023-02-11T23:06:28.921Z,102399.37
2023-02-11T23:08:57.744Z,102407.23
2023-02-11T23:11:28.814Z,102403.27
2023-02-11T23:13:57.644Z,102407.45
2023-02-11T23:16:31.924Z,102411.27
2023-02-11T23:19:02.716Z,102412.20
2023-02-11T23:21:33.138Z,102415.71
2023-02-11T23:24:05.204Z,102415.64
2023-02-11T23:26:33.759Z,102413.11
2023-02-11T23:29:02.221Z,102421.13
2023-02-11T23:31:37.963Z,102427.08
2023-02-11T23:34:07.839Z,102426.55
2023-02-11T23:36:36.783Z,102431.44
2023-02-11T23:39:04.909Z,102437.90
2023-02-11T23:41:33.057Z,102436.03
2023-02-11T23:44:01.193Z,102436.71
2023-02-11T23:46:29.529Z,102437.04
2023-02-11T23:48:57.745Z,102449.27
2023-02-11T23:51:25.846Z,102462.15
2023-02-11T23:53:56.214Z,102470.29
2023-02-11T23:56:27.621Z,102473.80
2023-02-11T23:58:58.333Z,102473.70
